Time;durP1;ratioP1;P1;durP2;ratioP2;P2;SDS_P1;SDS_P2;PMS_P1;PMS_P2;Temp;Humidity;BMP_temperature;BMP_pressure;BME280_temperature;BME280_humidity;BME280_pressure;Samples;Min_cycle;Max_cycle;Signal;HPM_P1;HPM_P2
2022/05/12 00:01:00;;;;;;;6.28;1.73;;;11.40;99.90;;;;;;4974451;28;20046;-92
2022/05/12 00:03:26;;;;;;;6.28;1.95;;;11.40;99.90;;;;;;4961359;28;20045;-91
2022/05/12 00:06:09;;;;;;;;;;;11.30;99.90;;;;;;5029523;28;20072;-91
2022/05/12 00:08:51;;;;;;;4.35;1.52;;;11.20;99.90;;;;;;5018275;28;19979;-91
2022/05/12 00:11:20;;;;;;;6.47;1.40;;;11.20;99.90;;;;;;5008356;28;20463;-92
2022/05/12 00:13:55;;;;;;;3.47;1.35;;;11.10;99.90;;;;;;5013066;28;20516;-92
2022/05/12 00:16:23;;;;;;;8.23;1.60;;;11.10;99.90;;;;;;5030173;28;20033;-91
2022/05/12 00:19:12;;;;;;;4.88;1.48;;;11.00;99.90;;;;;;5017661;28;20072;-91
2022/05/12 00:21:44;;;;;;;5.63;1.40;;;10.80;99.90;;;;;;5002694;28;20486;-91
2022/05/12 00:24:16;;;;;;;3.88;1.38;;;10.80;99.90;;;;;;5019194;28;20051;-92
2022/05/12 00:26:48;;;;;;;3.65;1.25;;;10.80;99.90;;;;;;5016763;28;20148;-90
2022/05/12 00:29:17;;;;;;;3.95;1.40;;;10.70;99.90;;;;;;4999623;28;20180;-91
2022/05/12 00:31:55;;;;;;;2.85;1.20;;;10.80;99.90;;;;;;5012277;28;20120;-91
2022/05/12 00:34:47;;;;;;;3.05;1.73;;;10.70;99.90;;;;;;5026461;28;20143;-91
2022/05/12 00:37:19;;;;;;;6.28;1.48;;;10.60;99.90;;;;;;5021149;28;20057;-90
2022/05/12 00:39:54;;;;;;;5.80;1.52;;;10.60;99.90;;;;;;5018777;28;20056;-90
2022/05/12 00:43:10;;;;;;;2.53;1.58;;;10.50;99.90;;;;;;5027902;28;20126;-91
2022/05/12 00:45:37;;;;;;;5.50;1.52;;;10.50;99.90;;;;;;5004368;28;20048;-90
2022/05/12 00:48:09;;;;;;;3.78;1.52;;;10.40;99.90;;;;;;5008473;28;20073;-90
2022/05/12 00:50:43;;;;;;;7.35;1.50;;;10.30;99.90;;;;;;5042900;28;20052;-91
2022/05/12 00:53:16;;;;;;;7.70;1.50;;;10.30;99.90;;;;;;5021147;28;20043;-92
2022/05/12 00:55:59;;;;;;;2.65;1.50;;;10.20;99.90;;;;;;5003339;28;20041;-90
2022/05/12 00:58:49;;;;;;;4.45;1.30;;;10.20;99.90;;;;;;5022472;28;20113;-89
2022/05/12 01:01:27;;;;;;;7.18;1.75;;;10.10;99.90;;;;;;5006774;28;20487;-90
2022/05/12 01:04:08;;;;;;;5.35;1.50;;;10.10;99.90;;;;;;5019259;28;20057;-91
2022/05/12 01:06:45;;;;;;;4.10;1.50;;;10.10;99.90;;;;;;5021062;28;20083;-90
2022/05/12 01:09:11;;;;;;;2.92;1.52;;;10.00;99.90;;;;;;5000221;28;20056;-90
2022/05/12 01:11:46;;;;;;;4.40;1.50;;;9.90;99.90;;;;;;4997076;28;20639;-91
2022/05/12 01:14:25;;;;;;;5.78;2.05;;;9.90;99.90;;;;;;5013122;28;20052;-92
2022/05/12 01:17:04;;;;;;;5.78;1.35;;;9.90;99.90;;;;;;5015736;28;20048;-90
2022/05/12 01:19:38;;;;;;;4.03;1.48;;;9.90;99.90;;;;;;5020416;28;20042;-91
2022/05/12 01:22:13;;;;;;;4.38;1.25;;;9.80;99.90;;;;;;5018629;28;20156;-90
2022/05/12 01:24:44;;;;;;;2.90;1.40;;;9.70;99.90;;;;;;5011992;28;20124;-90
2022/05/12 01:27:20;;;;;;;4.53;1.85;;;9.60;99.90;;;;;;5005764;28;20041;-90
2022/05/12 01:29:59;;;;;;;5.15;2.03;;;9.60;99.90;;;;;;5006093;28;20045;-93
2022/05/12 01:32:48;;;;;;;5.53;1.67;;;9.60;99.90;;;;;;5019331;28;20041;-92
2022/05/12 01:35:21;;;;;;;5.20;1.70;;;9.50;99.90;;;;;;5013890;28;20037;-91
2022/05/12 01:38:00;;;;;;;5.43;1.77;;;9.50;1.00;;;;;;5023223;28;20396;-90
2022/05/12 01:40:34;;;;;;;4.80;1.70;;;9.50;1.00;;;;;;5004694;28;20032;-91
2022/05/12 01:43:24;;;;;;;;;;;;;;;;;;;;;
2022/05/12 01:46:11;;;;;;;4.32;1.77;;;9.50;1.00;;;;;;5024897;28;20045;-90
2022/05/12 01:48:46;;;;;;;5.28;2.05;;;9.40;1.00;;;;;;5018254;28;20044;-90
2022/05/12 01:51:15;;;;;;;7.20;2.13;;;9.40;1.00;;;;;;5004025;28;20079;-90
2022/05/12 01:53:44;;;;;;;5.97;2.00;;;9.40;1.00;;;;;;5008793;28;20044;-90
2022/05/12 01:56:30;;;;;;;5.57;2.17;;;9.40;1.00;;;;;;5007320;28;20410;-90
2022/05/12 01:58:56;;;;;;;10.13;2.75;;;9.30;1.00;;;;;;5038330;28;20498;-89
2022/05/12 02:01:28;;;;;;;4.57;1.92;;;9.40;1.00;;;;;;5020168;28;20048;-91
2022/05/12 02:03:57;;;;;;;4.88;2.20;;;9.40;1.00;;;;;;4994621;28;20101;-90
2022/05/12 02:06:34;;;;;;;6.00;2.35;;;9.30;1.00;;;;;;4983223;28;20119;-90
2022/05/12 02:09:17;;;;;;;5.50;2.20;;;9.30;1.00;;;;;;4982008;28;20085;-90
2022/05/12 02:11:43;;;;;;;6.90;2.47;;;9.30;1.00;;;;;;4997689;28;20045;-90
2022/05/12 02:14:09;;;;;;;7.38;2.38;;;9.20;1.00;;;;;;4977434;28;20053;-91
2022/05/12 02:16:38;;;;;;;9.43;2.88;;;9.30;1.00;;;;;;4982856;28;20589;-90
2022/05/12 02:19:13;;;;;;;5.60;2.50;;;9.30;1.00;;;;;;4974968;28;20406;-91
2022/05/12 02:21:39;;;;;;;;;;;9.20;1.00;;;;;;4985895;28;20045;-90
2022/05/12 02:24:08;;;;;;;5.00;2.50;;;9.20;1.00;;;;;;4980303;28;19936;-92
2022/05/12 02:26:34;;;;;;;6.28;2.38;;;9.20;1.00;;;;;;4985494;28;20041;-89
2022/05/12 02:29:02;;;;;;;4.30;2.15;;;9.20;12.40;;;;;;4982221;28;20049;-91
2022/05/12 02:31:30;;;;;;;6.95;2.60;;;9.20;21.20;;;;;;5003200;28;20033;-91
2022/05/12 02:33:55;;;;;;;6.47;3.03;;;9.20;21.40;;;;;;5001664;28;20040;-90
2022/05/12 02:36:22;;;;;;;8.20;2.83;;;9.20;33.60;;;;;;5011211;28;20139;-90
2022/05/12 02:38:48;;;;;;;8.60;2.83;;;9.10;40.40;;;;;;5018192;28;20135;-91
2022/05/12 02:41:17;;;;;;;10.20;3.05;;;9.20;70.50;;;;;;5022011;28;20135;-90
2022/05/12 02:43:53;;;;;;;6.40;3.08;;;9.20;99.90;;;;;;5036117;28;20043;-91
2022/05/12 02:46:31;;;;;;;10.48;2.95;;;9.20;99.90;;;;;;5024315;28;20566;-90
2022/05/12 02:48:57;;;;;;;11.35;3.75;;;9.10;66.60;;;;;;5026346;28;20560;-89
2022/05/12 02:51:28;;;;;;;9.20;3.25;;;9.10;99.90;;;;;;5025389;28;20073;-90
2022/05/12 02:54:03;;;;;;;8.95;3.85;;;9.10;90.00;;;;;;5033090;28;20243;-89
2022/05/12 02:56:32;;;;;;;8.30;3.35;;;9.00;60.60;;;;;;5025973;28;20037;-90
2022/05/12 02:58:58;;;;;;;6.75;3.63;;;8.90;11.50;;;;;;5024378;28;20040;-90
2022/05/12 03:01:23;;;;;;;6.63;3.00;;;8.80;24.90;;;;;;5020204;28;20037;-90
2022/05/12 03:03:53;;;;;;;9.10;3.03;;;8.80;94.70;;;;;;5043865;28;20029;-88
2022/05/12 03:06:18;;;;;;;7.70;3.78;;;8.80;85.30;;;;;;5024045;28;20048;-89
2022/05/12 03:08:51;;;;;;;11.25;3.88;;;8.80;99.90;;;;;;5045583;28;20040;-91
2022/05/12 03:11:23;;;;;;;10.07;3.40;;;8.80;99.90;;;;;;5027962;28;20549;-89
2022/05/12 03:13:50;;;;;;;7.40;3.60;;;8.70;97.50;;;;;;5031470;28;20047;-89
2022/05/12 03:16:24;;;;;;;12.02;3.80;;;8.60;77.40;;;;;;5022531;28;20091;-89
2022/05/12 03:18:55;;;;;;;10.10;4.13;;;8.70;99.90;;;;;;5044829;28;20109;-89
2022/05/12 03:21:21;;;;;;;8.45;3.90;;;8.60;99.90;;;;;;5029631;28;20140;-89
2022/05/12 03:23:58;;;;;;;7.68;3.60;;;8.50;99.90;;;;;;5040191;28;20084;-90
2022/05/12 03:26:26;;;;;;;11.90;3.85;;;8.50;99.90;;;;;;5031821;28;20051;-90
2022/05/12 03:28:55;;;;;;;9.80;4.50;;;8.50;99.90;;;;;;5025811;28;20040;-89
2022/05/12 03:31:21;;;;;;;7.97;4.60;;;8.40;99.90;;;;;;5022874;28;20039;-89
2022/05/12 03:33:49;;;;;;;8.05;3.60;;;8.40;99.90;;;;;;5023964;28;20040;-89
2022/05/12 03:36:17;;;;;;;8.80;4.30;;;8.30;99.90;;;;;;5033031;28;20056;-90
2022/05/12 03:38:52;;;;;;;8.00;4.28;;;8.30;99.90;;;;;;5030115;28;20051;-90
2022/05/12 03:41:20;;;;;;;9.32;4.40;;;8.20;99.90;;;;;;5031483;28;20527;-90
2022/05/12 03:46:33;;;;;;;10.07;4.25;;;8.20;99.90;;;;;;5037614;28;20048;-90
2022/05/12 03:48:59;;;;;;;12.05;4.95;;;8.20;99.90;;;;;;5027385;28;20040;-90
2022/05/12 03:51:25;;;;;;;10.48;5.03;;;8.20;99.90;;;;;;5024169;28;20071;-89
2022/05/12 03:53:54;;;;;;;10.95;5.30;;;8.20;99.90;;;;;;5024088;28;20043;-90
2022/05/12 03:56:23;;;;;;;12.38;5.35;;;8.30;99.90;;;;;;5028002;28;20095;-89
2022/05/12 03:58:52;;;;;;;9.77;5.20;;;8.30;99.90;;;;;;5029453;28;20033;-90
2022/05/12 04:01:20;;;;;;;12.13;5.00;;;8.40;99.90;;;;;;5026298;28;20101;-91
2022/05/12 04:03:46;;;;;;;10.82;4.43;;;8.30;99.90;;;;;;5041201;28;20094;-90
2022/05/12 04:06:11;;;;;;;8.52;4.85;;;8.20;99.90;;;;;;5028078;28;20040;-90
2022/05/12 04:08:37;;;;;;;11.65;4.68;;;8.20;99.90;;;;;;5023504;28;20036;-90
2022/05/12 04:11:07;;;;;;;9.02;5.10;;;8.20;99.90;;;;;;5017387;28;20514;-90
2022/05/12 04:13:33;;;;;;;9.10;4.47;;;8.20;99.90;;;;;;5030222;28;20132;-89
2022/05/12 04:15:59;;;;;;;11.60;5.20;;;8.30;99.90;;;;;;5031720;28;20037;-89
2022/05/12 04:18:25;;;;;;;12.45;4.90;;;8.30;99.90;;;;;;5027649;28;20052;-90
2022/05/12 04:20:54;;;;;;;9.00;4.95;;;8.30;99.90;;;;;;5028148;28;20124;-90
2022/05/12 04:23:25;;;;;;;10.43;4.80;;;8.30;99.90;;;;;;5030777;28;20032;-90
2022/05/12 04:25:51;;;;;;;10.20;5.15;;;8.40;99.90;;;;;;5028686;28;20036;-90
2022/05/12 04:28:17;;;;;;;10.75;5.35;;;8.50;99.90;;;;;;5065759;28;20037;-91
2022/05/12 04:30:43;;;;;;;12.98;6.00;;;8.50;99.90;;;;;;5046273;28;20228;-90
2022/05/12 04:35:56;;;;;;;10.85;5.45;;;8.60;99.90;;;;;;5035505;28;20045;-91
2022/05/12 04:38:21;;;;;;;9.98;5.57;;;8.70;99.90;;;;;;5010065;28;20472;-90
2022/05/12 04:40:52;;;;;;;13.15;5.78;;;8.80;99.90;;;;;;4999555;28;20033;-89
2022/05/12 04:43:18;;;;;;;14.85;5.88;;;8.90;99.90;;;;;;5009862;28;20083;-89
2022/05/12 04:45:46;;;;;;;12.52;6.50;;;9.00;99.90;;;;;;5010848;28;20655;-90
2022/05/12 04:48:18;;;;;;;15.30;5.82;;;9.10;99.90;;;;;;5011763;28;20041;-90
2022/05/12 04:50:49;;;;;;;11.77;6.13;;;9.20;99.90;;;;;;5012921;28;20049;-89
2022/05/12 04:53:15;;;;;;;11.15;5.68;;;9.20;99.90;;;;;;5013154;28;20049;-92
2022/05/12 04:55:41;;;;;;;13.85;5.63;;;9.30;99.90;;;;;;5005806;28;20153;-90
2022/05/12 04:58:07;;;;;;;14.43;5.90;;;9.40;99.90;;;;;;5019781;28;20041;-88
2022/05/12 05:00:40;;;;;;;12.50;6.20;;;9.60;99.90;;;;;;5010816;28;20049;-89
2022/05/12 05:03:07;;;;;;;11.18;6.13;;;9.70;99.90;;;;;;5021673;28;20073;-90
2022/05/12 05:05:34;;;;;;;11.93;6.15;;;9.80;99.90;;;;;;5005518;28;20043;-91
2022/05/12 05:08:00;;;;;;;16.45;6.53;;;9.80;99.90;;;;;;5001641;28;20073;-89
2022/05/12 05:10:26;;;;;;;11.48;5.55;;;10.00;99.90;;;;;;5023811;28;20041;-91
2022/05/12 05:12:55;;;;;;;14.52;6.20;;;10.10;99.90;;;;;;5006790;28;20063;-89
2022/05/12 05:15:23;;;;;;;11.68;6.25;;;10.20;99.90;;;;;;5018879;28;20106;-91
2022/05/12 05:17:51;;;;;;;13.05;6.18;;;10.40;99.90;;;;;;5004909;28;20045;-91
2022/05/12 05:20:26;;;;;;;16.40;6.40;;;10.50;99.90;;;;;;5009706;28;20037;-90
2022/05/12 05:25:43;;;;;;;12.73;6.18;;;10.80;99.90;;;;;;5017946;28;20050;-90
2022/05/12 05:28:13;;;;;;;17.33;7.00;;;11.00;99.90;;;;;;5001817;28;20099;-91
2022/05/12 05:30:41;;;;;;;11.95;6.68;;;11.10;99.90;;;;;;5021058;28;20148;-92
2022/05/12 05:33:10;;;;;;;11.40;6.32;;;11.20;99.90;;;;;;5006942;28;20098;-90
2022/05/12 05:35:36;;;;;;;15.93;6.63;;;11.40;99.90;;;;;;5029456;28;20037;-91
2022/05/12 05:38:03;;;;;;;13.15;6.28;;;11.50;79.00;;;;;;5033839;28;20110;-90
2022/05/12 05:40:39;;;;;;;17.77;6.28;;;11.60;8.50;;;;;;5027697;28;20124;-91
2022/05/12 05:43:05;;;;;;;13.20;5.72;;;11.60;1.00;;;;;;5040895;28;20063;-89
2022/05/12 05:45:33;;;;;;;11.40;6.18;;;11.70;1.00;;;;;;5025460;28;20505;-91
2022/05/12 05:48:15;;;;;;;14.15;5.70;;;11.90;1.00;;;;;;5042837;28;20140;-89
2022/05/12 05:53:39;;;;;;;14.82;5.60;;;12.00;1.00;;;;;;5036579;28;20041;-90
2022/05/12 05:56:15;;;;;;;13.80;5.43;;;12.20;1.00;;;;;;5037175;28;20367;-92
2022/05/12 05:58:51;;;;;;;11.80;5.78;;;12.20;99.90;;;;;;5029866;28;20478;-90
2022/05/12 06:01:18;;;;;;;11.23;4.88;;;12.30;1.00;;;;;;5031927;28;20081;-92
2022/05/12 06:03:46;;;;;;;10.90;5.22;;;12.40;99.90;;;;;;5023177;28;20049;-91
2022/05/12 06:06:18;;;;;;;11.02;5.50;;;12.50;99.90;;;;;;5026387;28;20120;-90
2022/05/12 06:08:48;;;;;;;9.80;4.85;;;12.60;99.90;;;;;;5023806;28;20040;-90
2022/05/12 06:11:14;;;;;;;11.57;5.55;;;12.70;99.90;;;;;;5034383;28;20048;-90
2022/05/12 06:13:49;;;;;;;11.82;4.88;;;12.70;99.90;;;;;;5036126;28;20047;-91
2022/05/12 06:16:15;;;;;;;8.45;5.65;;;12.70;99.90;;;;;;5023672;28;20079;-90
2022/05/12 06:18:47;;;;;;;10.70;4.68;;;12.90;99.90;;;;;;5026264;28;20044;-91
2022/05/12 06:21:12;;;;;;;10.43;5.07;;;13.00;99.90;;;;;;5022036;28;20075;-90
2022/05/12 06:23:39;;;;;;;9.43;4.68;;;13.00;99.90;;;;;;5024370;28;20076;-90
2022/05/12 06:26:13;;;;;;;13.75;5.13;;;13.10;99.90;;;;;;5022207;28;20045;-90
2022/05/12 06:28:47;;;;;;;11.93;5.22;;;13.10;99.90;;;;;;5035407;28;20037;-91
2022/05/12 06:31:24;;;;;;;9.18;4.40;;;13.20;99.90;;;;;;5038285;28;20105;-90
2022/05/12 06:33:54;;;;;;;11.30;4.70;;;13.30;99.90;;;;;;5020970;28;20454;-91
2022/05/12 06:36:20;;;;;;;8.60;4.07;;;13.40;99.90;;;;;;5036066;28;20041;-91
2022/05/12 06:38:49;;;;;;;9.38;5.00;;;13.40;99.90;;;;;;5021031;28;20049;-91
2022/05/12 06:41:14;;;;;;;8.35;4.13;;;13.60;99.90;;;;;;5040067;28;20094;-91
2022/05/12 06:43:49;;;;;;;7.97;4.07;;;13.60;99.90;;;;;;5041110;28;20043;-91
2022/05/12 06:46:17;;;;;;;8.98;4.25;;;13.60;82.70;;;;;;5034815;28;20122;-90
2022/05/12 06:48:49;;;;;;;9.93;4.30;;;13.70;87.50;;;;;;5024549;28;20094;-92
2022/05/12 06:51:16;;;;;;;10.32;4.40;;;13.70;15.80;;;;;;5017545;28;20029;-91
2022/05/12 06:53:45;;;;;;;7.15;3.42;;;13.80;40.80;;;;;;5039445;28;20068;-91
2022/05/12 06:56:12;;;;;;;7.55;3.60;;;13.90;11.70;;;;;;5023421;28;20120;-91
2022/05/12 06:58:42;;;;;;;10.52;3.35;;;13.90;1.00;;;;;;5023122;28;20572;-89
2022/05/12 07:01:09;;;;;;;7.82;3.17;;;14.00;1.00;;;;;;5036657;28;20044;-90
2022/05/12 07:03:34;;;;;;;10.85;4.28;;;14.00;1.00;;;;;;5025367;28;20098;-90
2022/05/12 07:06:02;;;;;;;6.95;3.50;;;14.10;1.00;;;;;;5022834;28;20048;-91
2022/05/12 07:08:28;;;;;;;7.53;3.75;;;14.10;1.00;;;;;;5024329;28;20043;-90
2022/05/12 07:10:54;;;;;;;11.38;4.10;;;14.30;5.00;;;;;;5037827;28;20040;-91
2022/05/12 07:13:20;;;;;;;7.90;3.50;;;14.30;1.00;;;;;;5036653;28;20048;-92
2022/05/12 07:15:48;;;;;;;9.93;3.80;;;14.40;1.00;;;;;;5038871;28;20077;-91
2022/05/12 07:18:19;;;;;;;9.13;3.47;;;14.50;1.00;;;;;;5023589;28;20486;-91
2022/05/12 07:28:58;;;;;;;7.78;3.30;;;14.80;1.00;;;;;;5037750;28;20490;-90
2022/05/12 07:31:24;;;;;;;7.40;4.05;;;14.90;1.00;;;;;;5036036;28;20032;-90
2022/05/12 07:33:49;;;;;;;6.80;3.35;;;15.20;1.00;;;;;;5039164;28;20044;-90
2022/05/12 07:36:23;;;;;;;6.25;3.13;;;15.30;1.00;;;;;;5016233;28;20062;-91
2022/05/12 07:38:49;;;;;;;7.28;3.22;;;15.40;1.00;;;;;;5020371;28;20037;-89
2022/05/12 07:41:16;;;;;;;10.13;3.13;;;15.50;99.90;;;;;;5018834;28;20044;-90
2022/05/12 07:43:43;;;;;;;6.15;3.15;;;15.40;99.90;;;;;;5024392;28;20371;-90
2022/05/12 07:46:11;;;;;;;6.40;2.90;;;15.50;1.00;;;;;;5020959;28;20080;-90
2022/05/12 07:48:38;;;;;;;9.55;3.45;;;15.50;99.90;;;;;;5018297;28;20079;-91
2022/05/12 07:51:05;;;;;;;6.00;2.47;;;15.20;99.90;;;;;;5032698;28;20021;-90
2022/05/12 07:53:31;;;;;;;7.18;2.75;;;15.30;99.90;;;;;;5018726;28;20040;-90
2022/05/12 07:55:57;;;;;;;5.95;3.15;;;15.60;99.90;;;;;;5036601;28;20063;-91
2022/05/12 07:58:23;;;;;;;5.85;2.97;;;15.70;99.90;;;;;;5033437;28;20072;-90
2022/05/12 08:00:50;;;;;;;6.22;3.47;;;15.80;99.90;;;;;;5033995;28;20075;-90
2022/05/12 08:03:19;;;;;;;6.38;2.50;;;16.20;99.90;;;;;;5024181;28;20452;-90
2022/05/12 08:05:45;;;;;;;5.82;2.40;;;16.30;99.90;;;;;;5037204;28;20036;-89
2022/05/12 08:08:11;;;;;;;7.43;2.38;;;16.20;99.90;;;;;;5022808;28;20576;-92
2022/05/12 08:10:38;;;;;;;5.75;2.63;;;16.20;99.90;;;;;;5021958;28;20609;-89
2022/05/12 08:13:04;;;;;;;6.30;2.20;;;16.50;99.90;;;;;;5020239;28;20273;-90
2022/05/12 08:15:36;;;;;;;6.70;2.10;;;16.00;99.90;;;;;;5022048;28;20268;-90
2022/05/12 08:18:09;;;;;;;7.82;2.65;;;16.10;99.90;;;;;;5019270;28;20116;-90
2022/05/12 08:20:36;;;;;;;9.45;2.30;;;15.80;99.90;;;;;;5016727;28;20041;-91
2022/05/12 08:23:05;;;;;;;5.82;2.20;;;15.70;99.90;;;;;;5017627;28;20170;-90
2022/05/12 08:25:37;;;;;;;6.57;2.00;;;15.80;99.90;;;;;;5042130;28;20050;-91
2022/05/12 08:28:03;;;;;;;6.32;1.98;;;16.00;99.90;;;;;;5028920;28;20055;-91
2022/05/12 08:30:33;;;;;;;7.13;2.33;;;16.00;99.90;;;;;;5020670;28;20041;-90
2022/05/12 08:33:01;;;;;;;6.47;1.95;;;16.60;99.90;;;;;;5025588;28;20029;-91
2022/05/12 08:35:34;;;;;;;5.80;1.60;;;17.00;99.90;;;;;;5036253;28;20151;-91
2022/05/12 08:38:06;;;;;;;7.45;2.20;;;17.20;99.90;;;;;;5035267;28;20049;-90
2022/05/12 08:41:00;;;;;;;6.28;1.92;;;16.90;99.90;;;;;;5038032;28;20557;-91
2022/05/12 08:43:49;;;;;;;5.97;2.00;;;17.00;99.90;;;;;;5020661;28;20905;-91
2022/05/12 08:46:22;;;;;;;4.25;1.90;;;17.00;99.90;;;;;;4996760;28;20037;-91
2022/05/12 08:48:49;;;;;;;6.13;1.70;;;17.20;99.90;;;;;;5033258;28;20025;-90
2022/05/12 08:51:20;;;;;;;6.95;1.80;;;17.40;99.90;;;;;;5021927;28;20048;-91
2022/05/12 08:54:00;;;;;;;3.17;1.58;;;17.80;99.90;;;;;;5025638;28;20040;-91
2022/05/12 08:56:26;;;;;;;6.10;1.70;;;17.80;99.90;;;;;;5017179;28;20032;-91
2022/05/12 08:58:59;;;;;;;3.40;1.70;;;17.00;99.90;;;;;;5021345;28;20199;-90
2022/05/12 09:01:49;;;;;;;6.20;2.03;;;16.90;99.90;;;;;;5054921;28;20064;-89
2022/05/12 09:05:04;;;;;;;4.82;1.70;;;16.70;99.90;;;;;;5034041;28;20112;-93
2022/05/12 09:07:54;;;;;;;6.40;1.90;;;16.80;99.90;;;;;;5036692;28;20045;-92
2022/05/12 09:10:59;;;;;;;5.43;1.70;;;17.70;99.90;;;;;;5033946;28;20345;-90
2022/05/12 09:13:43;;;;;;;5.45;1.73;;;17.40;99.90;;;;;;5025802;28;20418;-91
2022/05/12 09:16:19;;;;;;;5.97;1.70;;;16.80;99.90;;;;;;5052363;28;20051;-91
2022/05/12 09:18:52;;;;;;;4.88;1.80;;;17.50;99.90;;;;;;5039234;28;20037;-92
2022/05/12 09:21:23;;;;;;;3.72;1.80;;;18.00;99.90;;;;;;5021926;28;20036;-90
2022/05/12 09:23:54;;;;;;;5.18;1.80;;;17.30;99.90;;;;;;5023457;28;20593;-91
2022/05/12 09:26:38;;;;;;;4.13;1.63;;;16.90;99.90;;;;;;5021744;28;20071;-90
2022/05/12 09:29:20;;;;;;;5.20;2.30;;;16.80;99.90;;;;;;5025575;28;20139;-91
2022/05/12 09:31:53;;;;;;;6.00;1.80;;;16.60;99.90;;;;;;5042118;28;20033;-90
2022/05/12 09:34:29;;;;;;;4.57;1.80;;;17.00;99.90;;;;;;5023288;28;20060;-91
2022/05/12 09:36:58;;;;;;;5.00;1.70;;;18.00;99.90;;;;;;5028083;28;20036;-91
2022/05/12 09:39:44;;;;;;;5.55;1.60;;;18.20;99.90;;;;;;5040776;28;20159;-91
2022/05/12 09:42:31;;;;;;;4.75;2.00;;;18.60;99.90;;;;;;5022929;28;20059;-92
2022/05/12 09:45:34;;;;;;;5.95;1.75;;;18.20;99.90;;;;;;5020797;28;20148;-90
2022/05/12 09:48:23;;;;;;;6.80;2.10;;;17.90;99.90;;;;;;5039277;28;20076;-90
2022/05/12 09:50:50;;;;;;;5.72;1.70;;;17.80;99.90;;;;;;5022934;28;20106;-91
2022/05/12 09:53:31;;;;;;;6.55;1.70;;;17.90;99.90;;;;;;5016179;28;20297;-90
2022/05/12 09:56:35;;;;;;;7.00;1.90;;;17.30;99.90;;;;;;5036838;28;20041;-90
2022/05/12 09:59:31;;;;;;;7.22;1.63;;;17.40;99.90;;;;;;5022249;28;20513;-91
2022/05/12 10:08:18;;;;;;;3.40;1.33;;;17.50;99.90;;;;;;5054592;28;20040;-91
2022/05/12 10:10:53;;;;;;;3.70;1.30;;;16.90;99.90;;;;;;5036471;28;20048;-91
2022/05/12 10:13:31;;;;;;;5.25;1.70;;;17.70;99.90;;;;;;5027995;28;20123;-90
2022/05/12 10:15:58;;;;;;;5.30;2.00;;;18.20;99.90;;;;;;5040309;28;20040;-91
2022/05/12 10:18:40;;;;;;;3.88;1.80;;;18.20;99.90;;;;;;5018197;28;20516;-90
2022/05/12 10:21:20;;;;;;;5.13;1.23;;;18.10;99.90;;;;;;5019437;28;20520;-91
2022/05/12 10:24:09;;;;;;;6.53;1.70;;;17.50;99.90;;;;;;5022856;28;20044;-91
2022/05/12 10:26:48;;;;;;;2.88;1.02;;;17.80;99.90;;;;;;5023005;28;20041;-89
2022/05/12 10:29:23;;;;;;;3.75;1.42;;;18.30;99.90;;;;;;5025053;28;20052;-90
2022/05/12 10:32:26;;;;;;;4.45;1.52;;;17.80;99.90;;;;;;5040083;28;20070;-90
2022/05/12 10:35:19;;;;;;;4.63;1.50;;;18.00;99.90;;;;;;5019566;28;20123;-90
2022/05/12 10:38:09;;;;;;;4.80;1.73;;;18.20;99.90;;;;;;5020511;28;20049;-91
2022/05/12 10:40:43;;;;;;;3.67;1.40;;;18.60;99.90;;;;;;5053783;28;20566;-91
2022/05/12 10:43:12;;;;;;;3.35;1.35;;;19.20;99.90;;;;;;5043385;28;20032;-91
2022/05/12 10:46:11;;;;;;;3.65;1.45;;;19.10;99.90;;;;;;5016355;28;20048;-91
2022/05/12 10:49:11;;;;;;;4.00;1.60;;;19.10;99.90;;;;;;5028683;28;20072;-91
2022/05/12 10:52:24;;;;;;;3.72;1.30;;;18.70;99.90;;;;;;4989865;28;20132;-91
2022/05/12 10:55:32;;;;;;;3.97;1.58;;;19.10;99.90;;;;;;5019383;28;20266;-91
2022/05/12 10:58:19;;;;;;;5.30;1.48;;;19.40;99.90;;;;;;5021979;28;20033;-91
2022/05/12 11:01:10;;;;;;;7.90;1.70;;;19.10;99.90;;;;;;5032319;28;20073;-90
2022/05/12 11:03:54;;;;;;;5.20;1.27;;;19.20;99.90;;;;;;5025431;28;20078;-91
2022/05/12 11:06:32;;;;;;;4.90;1.42;;;19.40;99.90;;;;;;5036172;28;20040;-91
2022/05/12 11:09:23;;;;;;;3.05;1.52;;;18.60;99.90;;;;;;5043205;28;20340;-91
2022/05/12 11:11:50;;;;;;;3.83;1.20;;;18.30;99.90;;;;;;5033268;28;20127;-91
2022/05/12 11:14:30;;;;;;;2.55;1.20;;;18.60;99.90;;;;;;5023159;28;20045;-90
2022/05/12 11:17:21;;;;;;;4.75;1.40;;;18.70;99.90;;;;;;5026726;28;20037;-90
2022/05/12 11:20:25;;;;;;;6.78;1.60;;;17.80;99.90;;;;;;5021926;28;20040;-91
2022/05/12 11:23:12;;;;;;;3.80;1.40;;;17.60;99.90;;;;;;5019678;28;20045;-91
2022/05/12 11:26:19;;;;;;;3.97;1.50;;;18.00;99.90;;;;;;5017153;28;20040;-90
2022/05/12 11:32:21;;;;;;;3.58;1.40;;;17.80;99.90;;;;;;5036911;28;20076;-90
2022/05/12 11:35:12;;;;;;;4.18;1.40;;;18.50;99.90;;;;;;5024169;28;20059;-92
2022/05/12 11:37:55;;;;;;;6.45;2.00;;;18.20;99.90;;;;;;5003995;28;20098;-91
2022/05/12 11:40:48;;;;;;;4.13;1.63;;;17.70;99.90;;;;;;5026851;28;20166;-92
2022/05/12 11:47:22;;;;;;;3.40;1.52;;;17.90;99.90;;;;;;4964076;28;20053;-91
2022/05/12 11:50:27;;;;;;;3.28;1.20;;;17.60;99.90;;;;;;4963470;28;20118;-91
2022/05/12 11:53:17;;;;;;;3.45;1.40;;;17.30;99.90;;;;;;5023597;28;20079;-92
2022/05/12 11:56:07;;;;;;;2.60;1.30;;;17.40;99.90;;;;;;5040861;28;20051;-90
2022/05/12 11:59:02;;;;;;;6.18;1.48;;;17.90;99.90;;;;;;5025906;28;20577;-93
2022/05/12 12:01:37;;;;;;;3.30;1.92;;;17.90;99.90;;;;;;5016954;28;20123;-92
2022/05/12 12:04:39;;;;;;;3.72;1.50;;;17.80;99.90;;;;;;5022977;28;20049;-91
2022/05/12 12:07:07;;;;;;;5.55;1.60;;;17.70;99.90;;;;;;5037101;28;20303;-92
2022/05/12 12:09:36;;;;;;;5.03;1.73;;;18.50;99.90;;;;;;5021528;28;20048;-91
2022/05/12 12:12:05;;;;;;;3.03;1.27;;;19.30;99.90;;;;;;5019126;28;20029;-91
2022/05/12 12:14:46;;;;;;;4.53;1.20;;;20.10;99.90;;;;;;5036906;28;20574;-92
2022/05/12 12:17:19;;;;;;;5.43;1.40;;;19.90;99.90;;;;;;5038441;28;20076;-92
2022/05/12 12:19:52;;;;;;;3.65;1.40;;;19.40;99.90;;;;;;5040985;28;20060;-92
2022/05/12 12:22:37;;;;;;;4.80;1.30;;;20.00;99.90;;;;;;5019694;28;20155;-91
2022/05/12 12:25:26;;;;;;;3.90;1.77;;;20.70;99.90;;;;;;5022660;28;20043;-90
2022/05/12 12:28:03;;;;;;;4.13;1.58;;;20.10;99.90;;;;;;5021387;28;20036;-90
2022/05/12 12:30:59;;;;;;;5.85;1.60;;;20.60;99.90;;;;;;5038686;28;20040;-92
2022/05/12 12:33:29;;;;;;;3.55;1.63;;;20.10;99.90;;;;;;5038966;28;20049;-90
2022/05/12 12:36:06;;;;;;;4.03;1.60;;;21.10;99.90;;;;;;5039395;28;20044;-92
2022/05/12 12:38:47;;;;;;;5.88;2.00;;;20.70;99.90;;;;;;5024235;28;20052;-91
2022/05/12 12:41:19;;;;;;;4.10;1.70;;;20.90;99.90;;;;;;5040457;28;20047;-91
2022/05/12 12:44:09;;;;;;;3.58;1.50;;;21.70;99.90;;;;;;5042381;28;20033;-91
2022/05/12 12:47:09;;;;;;;3.20;1.40;;;20.30;99.90;;;;;;5045996;28;20052;-91
2022/05/12 12:50:24;;;;;;;5.57;1.80;;;19.70;99.90;;;;;;5040731;28;20071;-92
2022/05/12 12:53:08;;;;;;;4.65;1.65;;;19.70;99.90;;;;;;5040946;28;20060;-93
2022/05/12 12:58:55;;;;;;;3.85;1.60;;;21.30;99.90;;;;;;5007672;28;20071;-92
2022/05/12 13:01:34;;;;;;;4.40;2.20;;;20.30;99.90;;;;;;5041960;28;20375;-92
2022/05/12 13:04:09;;;;;;;3.90;1.63;;;20.40;99.90;;;;;;5042505;28;20083;-91
2022/05/12 13:06:47;;;;;;;5.10;1.65;;;20.00;99.90;;;;;;5024174;28;20044;-92
2022/05/12 13:09:26;;;;;;;6.13;1.73;;;19.70;99.90;;;;;;5019973;28;20071;-93
2022/05/12 13:12:21;;;;;;;3.15;1.60;;;18.80;99.80;;;;;;5022428;28;20048;-91
2022/05/12 13:15:00;;;;;;;3.55;1.33;;;18.40;98.90;;;;;;5040140;28;20097;-93
2022/05/12 13:17:38;;;;;;;3.92;1.60;;;18.30;97.40;;;;;;5030864;28;20111;-90
2022/05/12 13:20:24;;;;;;;4.80;1.70;;;18.50;98.00;;;;;;5029719;28;20048;-90
2022/05/12 13:22:54;;;;;;;3.60;1.55;;;18.40;98.90;;;;;;5028723;28;20048;-91
2022/05/12 13:25:29;;;;;;;5.32;1.73;;;18.30;99.90;;;;;;5021454;28;20048;-91
2022/05/12 13:28:06;;;;;;;3.03;1.45;;;18.00;97.70;;;;;;5030316;28;20050;-92
2022/05/12 13:30:50;;;;;;;3.60;1.20;;;18.00;99.90;;;;;;5038950;28;20502;-90
2022/05/12 13:33:30;;;;;;;3.78;1.40;;;17.80;96.60;;;;;;5047695;28;20726;-90
2022/05/12 13:36:19;;;;;;;5.25;1.70;;;18.30;98.20;;;;;;5027358;28;20049;-93
2022/05/12 13:38:52;;;;;;;4.75;1.65;;;18.80;99.80;;;;;;5033253;28;20052;-92
2022/05/12 13:41:45;;;;;;;4.70;1.63;;;18.50;99.90;;;;;;5023922;28;20443;-92
2022/05/12 13:44:33;;;;;;;4.35;1.58;;;18.60;98.50;;;;;;5005507;28;20047;-90
2022/05/12 13:47:07;;;;;;;2.67;1.20;;;19.40;99.90;;;;;;5008260;28;20040;-91
2022/05/12 13:49:39;;;;;;;5.38;1.60;;;19.10;99.00;;;;;;5017070;28;20045;-91
2022/05/12 13:52:11;;;;;;;4.22;1.60;;;18.40;96.60;;;;;;5030015;28;20075;-92
2022/05/12 13:55:02;;;;;;;3.67;1.48;;;18.30;98.30;;;;;;5026004;28;20045;-91
2022/05/12 13:58:09;;;;;;;3.22;1.38;;;18.20;96.80;;;;;;5016683;28;20111;-92
2022/05/12 14:00:35;;;;;;;4.18;1.30;;;17.80;95.50;;;;;;5018681;28;20049;-92
2022/05/12 14:03:23;;;;;;;5.13;1.42;;;17.70;96.70;;;;;;5003446;28;20044;-92
2022/05/12 14:06:21;;;;;;;2.15;1.38;;;17.60;93.70;;;;;;5030958;28;20052;-91
2022/05/12 14:09:46;;;;;;;5.47;1.50;;;17.40;92.30;;;;;;5000764;28;20072;-91